Time;durP1;ratioP1;P1;durP2;ratioP2;P2;SDS_P1;SDS_P2;PMS_P1;PMS_P2;Temp;Humidity;BMP_temperature;BMP_pressure;BME280_temperature;BME280_humidity;BME280_pressure;Samples;Min_cycle;Max_cycle;Signal;HPM_P1;HPM_P2
2023/09/12 00:03:03;;;;;;;18.27;13.63;;;;;19.10;100820.00;;;;9998440;29;20367;-78
2023/09/12 00:08:05;;;;;;;17.75;12.27;;;;;19.20;100815.00;;;;9997610;29;20471;-77
2023/09/12 00:13:06;;;;;;;20.60;13.63;;;;;19.20;100824.00;;;;9990661;29;20239;-76
2023/09/12 00:18:08;;;;;;;19.40;14.50;;;;;19.20;100809.00;;;;9990378;29;20227;-78
2023/09/12 00:23:09;;;;;;;17.65;12.65;;;;;19.20;100815.00;;;;10005682;29;20239;-78
2023/09/12 00:28:11;;;;;;;17.25;14.82;;;;;19.30;100808.00;;;;9972710;29;20220;-77
2023/09/12 00:33:12;;;;;;;22.15;15.35;;;;;19.40;100806.00;;;;9989251;29;21567;-76
2023/09/12 00:38:14;;;;;;;21.35;17.02;;;;;19.40;100805.00;;;;10011083;29;20682;-78
2023/09/12 00:43:16;;;;;;;18.45;14.77;;;;;19.50;100801.00;;;;9996958;29;20216;-76
2023/09/12 00:48:19;;;;;;;20.48;15.68;;;;;19.50;100800.00;;;;9991255;29;20291;-78
2023/09/12 00:53:21;;;;;;;20.30;13.63;;;;;19.50;100796.00;;;;9995535;29;21146;-77
2023/09/12 00:58:25;;;;;;;19.17;13.88;;;;;19.40;100793.00;;;;9991133;29;20580;-76
2023/09/12 01:03:27;;;;;;;19.00;14.52;;;;;19.40;100796.00;;;;9978868;29;20674;-79
2023/09/12 01:08:29;;;;;;;17.05;13.75;;;;;19.20;100803.00;;;;9996719;29;21753;-77
2023/09/12 01:13:30;;;;;;;20.48;13.52;;;;;19.10;100790.00;;;;9986050;29;20932;-79
2023/09/12 01:18:33;;;;;;;16.77;13.68;;;;;19.00;100788.00;;;;9988070;29;20228;-77
2023/09/12 01:23:47;;;;;;;23.17;14.68;;;;;18.80;100787.00;;;;9986490;29;20212;-76
2023/09/12 01:28:51;;;;;;;19.00;14.23;;;;;18.70;100788.00;;;;9987743;29;20214;-77
2023/09/12 01:33:57;;;;;;;20.75;14.88;;;;;18.60;100789.00;;;;9986667;29;20259;-78
2023/09/12 01:38:58;;;;;;;21.40;15.60;;;;;18.60;100779.00;;;;10002453;29;20255;-77
2023/09/12 01:44:02;;;;;;;22.33;16.02;;;;;18.60;100774.00;;;;9987266;29;20216;-80
2023/09/12 01:49:05;;;;;;;22.50;16.38;;;;;18.50;100783.00;;;;10002437;29;20267;-78
2023/09/12 01:54:07;;;;;;;29.60;18.25;;;;;18.50;100770.00;;;;10003183;29;20509;-79
2023/09/12 01:59:09;;;;;;;23.25;15.43;;;;;18.50;100762.00;;;;9988419;29;20251;-77
2023/09/12 02:04:11;;;;;;;17.48;15.45;;;;;18.50;100765.00;;;;10006002;29;20236;-77
2023/09/12 02:09:12;;;;;;;23.48;14.95;;;;;18.50;100777.00;;;;10009445;29;20223;-79
2023/09/12 02:14:14;;;;;;;19.08;13.60;;;;;18.50;100767.00;;;;9990667;29;20243;-78
2023/09/12 02:19:15;;;;;;;20.40;13.73;;;;;18.40;100772.00;;;;9990301;29;20303;-78
2023/09/12 02:24:18;;;;;;;19.38;15.02;;;;;18.40;100765.00;;;;9993447;29;20220;-78
2023/09/12 02:29:19;;;;;;;23.63;15.88;;;;;18.40;100752.00;;;;9988977;29;20251;-78
2023/09/12 02:34:21;;;;;;;21.77;16.67;;;;;18.50;100759.00;;;;9991861;29;21384;-78
2023/09/12 02:39:23;;;;;;;29.98;19.90;;;;;18.50;100754.00;;;;9994540;29;20247;-78
2023/09/12 02:44:24;;;;;;;39.67;24.58;;;;;18.50;100771.00;;;;10006108;29;21112;-78
2023/09/12 02:49:26;;;;;;;40.92;26.48;;;;;18.60;100772.00;;;;10015048;29;20223;-78
2023/09/12 02:54:27;;;;;;;38.55;26.60;;;;;18.60;100778.00;;;;9999461;29;20550;-78
2023/09/12 02:59:29;;;;;;;49.35;28.23;;;;;18.70;100781.00;;;;9989711;29;20228;-79
2023/09/12 03:04:36;;;;;;;50.17;31.80;;;;;18.80;100767.00;;;;9988900;29;21077;-78
2023/09/12 03:09:38;;;;;;;45.97;29.70;;;;;18.90;100772.00;;;;10006124;29;20606;-78
2023/09/12 03:14:40;;;;;;;45.17;30.60;;;;;18.90;100778.00;;;;9987598;29;20302;-78
2023/09/12 03:19:41;;;;;;;44.85;28.80;;;;;19.00;100776.00;;;;10007018;29;20627;-78
2023/09/12 03:24:45;;;;;;;53.75;33.13;;;;;19.00;100778.00;;;;9963470;29;20980;-78
2023/09/12 03:29:47;;;;;;;50.30;33.20;;;;;19.00;100778.00;;;;10052535;29;20225;-78
2023/09/12 03:40:32;;;;;;;51.35;31.65;;;;;19.10;100775.00;;;;10938140;23;20262;-78
2023/09/12 03:45:35;;;;;;;52.33;32.95;;;;;19.10;100774.00;;;;10922327;23;20244;-79
2023/09/12 03:50:36;;;;;;;49.35;32.42;;;;;19.10;100767.00;;;;10051755;29;20965;-78
2023/09/12 04:01:21;;;;;;;48.95;32.00;;;;;19.10;100741.00;;;;10013070;29;20236;-79
2023/09/12 04:06:23;;;;;;;51.92;33.38;;;;;19.10;100727.00;;;;9997210;29;20244;-78
2023/09/12 04:11:25;;;;;;;51.92;34.20;;;;;19.10;100721.00;;;;10008610;29;20205;-78
2023/09/12 04:16:45;;;;;;;49.53;31.38;;;;;19.10;100703.00;;;;10007801;29;20272;-79
2023/09/12 04:21:47;;;;;;;47.80;31.67;;;;;19.10;100707.00;;;;9989820;29;20217;-79
2023/09/12 04:26:48;;;;;;;47.65;31.38;;;;;19.00;100702.00;;;;9997396;29;20228;-79
2023/09/12 04:31:52;;;;;;;44.53;30.33;;;;;19.00;100707.00;;;;9985712;29;21517;-79
2023/09/12 04:36:54;;;;;;;47.75;31.75;;;;;19.00;100722.00;;;;9960224;29;20212;-78
2023/09/12 04:41:56;;;;;;;48.42;30.67;;;;;19.00;100721.00;;;;9950045;29;20220;-78
2023/09/12 04:46:58;;;;;;;51.67;31.60;;;;;19.00;100738.00;;;;9949707;29;20550;-78
2023/09/12 04:51:59;;;;;;;54.53;33.20;;;;;19.00;100733.00;;;;9938297;29;20232;-78
2023/09/12 04:57:01;;;;;;;53.92;33.83;;;;;18.90;100732.00;;;;9934544;29;20273;-78
2023/09/12 05:02:03;;;;;;;56.20;33.72;;;;;18.90;100733.00;;;;9941765;29;21334;-79
2023/09/12 05:07:05;;;;;;;54.15;32.88;;;;;18.90;100731.00;;;;9953251;29;20240;-78
2023/09/12 05:12:07;;;;;;;55.25;34.80;;;;;18.80;100727.00;;;;9947329;29;20261;-78
2023/09/12 05:17:08;;;;;;;54.17;32.80;;;;;18.70;100738.00;;;;9940377;29;20632;-78
2023/09/12 05:22:10;;;;;;;49.30;31.02;;;;;18.60;100739.00;;;;9943785;29;20967;-79
2023/09/12 05:27:12;;;;;;;50.35;31.73;;;;;18.60;100742.00;;;;9948664;29;20228;-78
2023/09/12 05:32:16;;;;;;;50.88;31.95;;;;;18.50;100744.00;;;;9937492;29;20231;-79
2023/09/12 05:37:18;;;;;;;50.53;32.22;;;;;18.40;100751.00;;;;9924318;29;20328;-79
2023/09/12 05:42:22;;;;;;;52.55;31.90;;;;;18.40;100748.00;;;;9947026;29;20241;-78
2023/09/12 05:47:23;;;;;;;48.78;31.80;;;;;18.30;100758.00;;;;9945588;29;20510;-80
2023/09/12 05:52:25;;;;;;;52.60;32.17;;;;;18.40;100764.00;;;;9941270;29;20327;-80
2023/09/12 05:57:26;;;;;;;49.67;31.02;;;;;18.40;100761.00;;;;9922838;29;20229;-80
2023/09/12 06:02:28;;;;;;;56.40;33.85;;;;;18.60;100762.00;;;;9926031;29;20237;-78
2023/09/12 06:07:30;;;;;;;53.97;33.47;;;;;18.70;100759.00;;;;9909164;29;20229;-79
2023/09/12 06:12:32;;;;;;;56.63;34.00;;;;;18.80;100760.00;;;;9926293;29;20226;-79
2023/09/12 06:17:34;;;;;;;51.22;33.13;;;;;19.00;100757.00;;;;9945217;29;20213;-78
2023/09/12 06:22:36;;;;;;;56.40;34.22;;;;;19.20;100750.00;;;;9940969;29;20225;-79
2023/09/12 06:27:37;;;;;;;49.95;32.22;;;;;19.50;100750.00;;;;9939687;29;21618;-78
2023/09/12 06:32:39;;;;;;;51.38;32.22;;;;;19.70;100769.00;;;;9924677;29;20225;-78
2023/09/12 06:37:40;;;;;;;50.10;32.40;;;;;20.00;100765.00;;;;9910681;29;20633;-79
2023/09/12 06:42:42;;;;;;;44.83;32.05;;;;;20.30;100776.00;;;;9939331;29;20224;-79
2023/09/12 06:47:44;;;;;;;47.08;32.13;;;;;20.60;100782.00;;;;9954008;29;20456;-78
2023/09/12 06:52:46;;;;;;;47.90;32.70;;;;;20.80;100778.00;;;;9944557;29;20740;-77
2023/09/12 06:57:47;;;;;;;49.83;32.95;;;;;21.00;100792.00;;;;9936550;29;20221;-78
2023/09/12 07:02:48;;;;;;;49.30;33.25;;;;;21.20;100805.00;;;;9937701;29;20272;-78
2023/09/12 07:07:51;;;;;;;53.13;34.65;;;;;21.40;100794.00;;;;9938266;29;20209;-79
2023/09/12 07:12:53;;;;;;;52.63;33.05;;;;;21.80;100802.00;;;;9917329;29;20209;-80
2023/09/12 07:17:56;;;;;;;51.40;32.40;;;;;21.70;100801.00;;;;9943291;29;20278;-80
2023/09/12 07:22:57;;;;;;;53.40;31.98;;;;;21.60;100810.00;;;;9944987;29;20233;-79
2023/09/12 07:27:59;;;;;;;56.90;33.30;;;;;21.50;100821.00;;;;9942707;29;20221;-79
2023/09/12 07:33:00;;;;;;;59.42;33.38;;;;;21.40;100824.00;;;;9952324;29;21555;-79
2023/09/12 07:38:02;;;;;;;48.10;30.88;;;;;21.80;100815.00;;;;9943257;29;20328;-80
2023/09/12 07:43:03;;;;;;;39.75;28.45;;;;;23.10;100817.00;;;;9940195;29;20232;-79
2023/09/12 07:48:12;;;;;;;38.85;24.58;;;;;23.40;100816.00;;;;9945465;29;20293;-79
2023/09/12 07:53:13;;;;;;;37.50;26.02;;;;;23.30;100825.00;;;;9928994;29;20221;-81
2023/09/12 07:58:18;;;;;;;34.90;24.63;;;;;23.40;100822.00;;;;9943073;29;20224;-80
2023/09/12 08:03:19;;;;;;;38.47;23.92;;;;;23.40;100818.00;;;;9943857;29;20316;-80
2023/09/12 08:08:21;;;;;;;30.80;22.55;;;;;24.20;100816.00;;;;9936100;29;20256;-80
2023/09/12 08:13:25;;;;;;;30.52;22.65;;;;;24.50;100817.00;;;;9917869;29;20839;-80
2023/09/12 08:18:30;;;;;;;29.35;21.63;;;;;24.10;100826.00;;;;9935062;29;20255;-79
2023/09/12 08:23:32;;;;;;;37.00;22.90;;;;;24.10;100827.00;;;;9922870;29;20324;-80
2023/09/12 08:28:33;;;;;;;29.67;21.63;;;;;24.40;100820.00;;;;9950153;29;20252;-80
2023/09/12 08:33:35;;;;;;;29.25;23.52;;;;;24.60;100824.00;;;;9959452;29;20332;-79
2023/09/12 08:38:36;;;;;;;34.40;22.23;;;;;24.60;100814.00;;;;9941368;29;20313;-79
2023/09/12 08:43:38;;;;;;;29.02;21.48;;;;;25.10;100809.00;;;;9958995;29;20248;-81
2023/09/12 08:48:41;;;;;;;33.67;23.60;;;;;25.90;100811.00;;;;9938210;29;20335;-81
2023/09/12 08:53:42;;;;;;;30.98;21.13;;;;;26.20;100816.00;;;;9936485;29;20425;-81
2023/09/12 08:58:45;;;;;;;31.48;21.13;;;;;26.60;100822.00;;;;9936886;29;21007;-79
2023/09/12 09:03:48;;;;;;;30.85;22.48;;;;;26.60;100812.00;;;;9921848;29;20890;-80
2023/09/12 09:08:50;;;;;;;31.67;22.38;;;;;27.20;100812.00;;;;9932670;29;20224;-80
2023/09/12 09:13:52;;;;;;;29.65;20.27;;;;;27.30;100803.00;;;;9917935;29;20236;-80
2023/09/12 09:19:00;;;;;;;27.73;21.00;;;;;27.60;100803.00;;;;9923342;29;21143;-82
2023/09/12 09:24:06;;;;;;;26.60;18.00;;;;;27.60;100803.00;;;;9919995;29;20320;-81
2023/09/12 09:29:10;;;;;;;26.63;18.95;;;;;27.30;100814.00;;;;9930028;29;20284;-83
2023/09/12 09:34:19;;;;;;;26.23;20.17;;;;;27.30;100796.00;;;;9942373;29;20221;-81
2023/09/12 09:39:23;;;;;;;23.70;17.00;;;;;27.50;100814.00;;;;9941837;29;20320;-82
2023/09/12 09:44:26;;;;;;;24.65;17.05;;;;;28.60;100813.00;;;;9939865;29;20233;-82
2023/09/12 09:49:31;;;;;;;21.48;13.63;;;;;29.20;100812.00;;;;9962139;29;20226;-81
2023/09/12 09:54:32;;;;;;;24.17;16.55;;;;;29.60;100810.00;;;;9943235;29;20306;-81
2023/09/12 09:59:34;;;;;;;20.33;15.18;;;;;30.00;100800.00;;;;9929519;29;20646;-81
2023/09/12 10:04:36;;;;;;;22.20;14.38;;;;;30.60;100803.00;;;;9939907;29;21681;-82
2023/09/12 10:09:40;;;;;;;15.95;12.00;;;;;30.50;100797.00;;;;9944592;29;22504;-82
2023/09/12 10:14:43;;;;;;;17.92;11.63;;;;;30.00;100798.00;;;;9947563;29;20240;-82
2023/09/12 10:19:54;;;;;;;14.88;9.32;;;;;28.90;100803.00;;;;9938972;29;20543;-81
2023/09/12 10:24:56;;;;;;;15.48;11.52;;;;;29.10;100800.00;;;;9919819;29;20217;-81
2023/09/12 10:29:59;;;;;;;17.02;9.90;;;;;28.80;100800.00;;;;9917037;29;20324;-79
2023/09/12 10:35:03;;;;;;;17.05;11.98;;;;;29.00;100807.00;;;;9920831;29;20232;-78
2023/09/12 10:40:07;;;;;;;22.83;16.98;;;;;29.20;100818.00;;;;9930254;29;20615;-79
2023/09/12 10:45:09;;;;;;;20.20;15.57;;;;;28.90;100800.00;;;;9934627;29;21326;-80
2023/09/12 10:50:12;;;;;;;21.00;15.60;;;;;28.00;100815.00;;;;9941462;29;21878;-80
2023/09/12 10:55:20;;;;;;;21.38;15.20;;;;;28.00;100806.00;;;;9941364;29;20247;-79
2023/09/12 11:00:21;;;;;;;21.75;16.27;;;;;28.10;100815.00;;;;9925308;29;21850;-81
2023/09/12 11:05:29;;;;;;;23.55;16.52;;;;;27.80;100807.00;;;;9920404;29;21167;-81
2023/09/12 11:10:32;;;;;;;23.13;15.63;;;;;27.40;100798.00;;;;9932792;29;20282;-81
2023/09/12 11:15:34;;;;;;;22.33;16.10;;;;;29.00;100797.00;;;;9936850;29;20278;-82
2023/09/12 11:21:08;;;;;;;18.45;14.55;;;;;28.90;100808.00;;;;9920283;29;21667;-80
2023/09/12 11:26:13;;;;;;;18.88;13.13;;;;;28.90;100795.00;;;;9929312;29;20252;-78
2023/09/12 11:31:27;;;;;;;14.65;11.55;;;;;29.60;100786.00;;;;9924250;29;20213;-80
2023/09/12 11:36:29;;;;;;;18.58;12.60;;;;;30.20;100775.00;;;;9937710;29;20272;-80
2023/09/12 11:41:39;;;;;;;16.67;9.68;;;;;30.30;100783.00;;;;9946161;29;20640;-81
2023/09/12 11:46:41;;;;;;;17.20;13.45;;;;;30.10;100782.00;;;;9940905;29;20279;-81
2023/09/12 11:51:47;;;;;;;13.18;11.73;;;;;30.30;100778.00;;;;9939099;29;20241;-82
2023/09/12 11:56:49;;;;;;;14.40;9.65;;;;;30.80;100777.00;;;;9946230;29;20240;-82
2023/09/12 12:01:51;;;;;;;12.85;9.52;;;;;30.10;100778.00;;;;9955181;29;20992;-82
2023/09/12 12:06:53;;;;;;;12.18;10.10;;;;;30.30;100781.00;;;;9960904;29;20281;-81
2023/09/12 12:11:55;;;;;;;17.15;9.60;;;;;28.80;100783.00;;;;9958904;29;20298;-80
2023/09/12 12:16:57;;;;;;;12.70;10.52;;;;;28.20;100782.00;;;;9937238;29;20243;-80
2023/09/12 12:21:58;;;;;;;15.88;10.50;;;;;28.50;100775.00;;;;9923783;29;20301;-81
2023/09/12 12:27:00;;;;;;;13.38;9.15;;;;;28.20;100779.00;;;;9935589;29;20363;-80
2023/09/12 12:32:05;;;;;;;12.43;10.10;;;;;29.10;100762.00;;;;9940508;29;20229;-79
2023/09/12 12:37:06;;;;;;;14.35;8.50;;;;;29.80;100744.00;;;;9937883;29;20238;-79
2023/09/12 12:42:09;;;;;;;12.32;9.20;;;;;29.50;100749.00;;;;9936454;29;20695;-79
2023/09/12 12:47:11;;;;;;;12.88;9.10;;;;;28.60;100750.00;;;;9944134;29;20872;-78
2023/09/12 12:52:14;;;;;;;12.88;8.43;;;;;27.90;100746.00;;;;9940988;29;20221;-79
2023/09/12 12:57:19;;;;;;;10.60;8.85;;;;;27.70;100731.00;;;;9952013;29;20213;-78
2023/09/12 13:02:20;;;;;;;11.88;8.80;;;;;27.20;100729.00;;;;9948275;29;20233;-78
2023/09/12 13:07:22;;;;;;;15.10;9.70;;;;;27.60;100736.00;;;;9954595;29;20221;-79
2023/09/12 13:12:23;;;;;;;12.93;8.40;;;;;27.80;100745.00;;;;9952554;29;20225;-79
2023/09/12 13:17:25;;;;;;;10.85;7.90;;;;;27.70;100744.00;;;;9939671;29;20217;-78
2023/09/12 13:22:26;;;;;;;12.43;8.27;;;;;27.70;100733.00;;;;9955944;29;20218;-77
2023/09/12 13:27:29;;;;;;;9.80;8.02;;;;;27.30;100720.00;;;;9959003;29;20267;-79
2023/09/12 13:32:30;;;;;;;12.65;8.48;;;;;26.90;100721.00;;;;9959748;29;20337;-79
2023/09/12 13:37:31;;;;;;;9.68;8.23;;;;;26.60;100722.00;;;;9955386;29;20235;-78
2023/09/12 13:42:32;;;;;;;8.88;7.45;;;;;26.60;100725.00;;;;9956028;29;20295;-78
2023/09/12 13:47:34;;;;;;;9.32;8.00;;;;;26.30;100728.00;;;;9936939;29;20249;-78
2023/09/12 13:52:35;;;;;;;10.40;8.02;;;;;26.10;100747.00;;;;9943383;29;20224;-80
2023/09/12 13:57:37;;;;;;;9.20;7.90;;;;;26.10;100740.00;;;;9938744;29;20225;-81
2023/09/12 14:02:48;;;;;;;11.07;8.77;;;;;25.90;100743.00;;;;9919104;29;20213;-81
2023/09/12 14:07:51;;;;;;;11.43;9.00;;;;;25.80;100744.00;;;;9932211;29;21688;-79
2023/09/12 14:12:52;;;;;;;12.48;9.10;;;;;25.80;100748.00;;;;9957354;29;20236;-82
2023/09/12 14:17:55;;;;;;;12.88;9.35;;;;;25.90;100751.00;;;;10028312;29;21003;-81
2023/09/12 14:22:58;;;;;;;12.55;9.23;;;;;25.80;100745.00;;;;10024191;29;20210;-81
2023/09/12 14:28:00;;;;;;;11.85;9.25;;;;;25.50;100741.00;;;;10027703;29;20309;-81
2023/09/12 14:33:02;;;;;;;11.48;9.07;;;;;25.40;100733.00;;;;10033195;29;20244;-81
2023/09/12 14:38:04;;;;;;;12.95;8.00;;;;;25.20;100734.00;;;;10049826;29;20217;-81
2023/09/12 14:43:05;;;;;;;11.38;8.00;;;;;25.30;100725.00;;;;10047563;29;20814;-82
2023/09/12 14:48:07;;;;;;;11.23;9.20;;;;;25.50;100714.00;;;;10043294;29;20862;-81
2023/09/12 14:53:08;;;;;;;10.35;8.38;;;;;25.40;100716.00;;;;10040864;29;20225;-83
2023/09/12 14:58:10;;;;;;;11.63;8.80;;;;;25.40;100717.00;;;;10050642;29;20221;-83
2023/09/12 15:03:11;;;;;;;9.52;7.63;;;;;25.20;100720.00;;;;10037906;29;20213;-83
2023/09/12 15:08:13;;;;;;;11.43;8.50;;;;;25.10;100716.00;;;;10026488;29;20218;-84
2023/09/12 15:13:14;;;;;;;11.05;8.25;;;;;25.10;100701.00;;;;10026363;29;20231;-81
2023/09/12 15:18:16;;;;;;;9.70;6.85;;;;;24.90;100719.00;;;;10011079;29;20221;-79
2023/09/12 15:23:18;;;;;;;9.00;6.60;;;;;24.70;100711.00;;;;10026989;29;20221;-80
2023/09/12 15:28:19;;;;;;;7.70;6.03;;;;;24.70;100721.00;;;;10049914;29;20304;-81
2023/09/12 15:33:22;;;;;;;9.98;6.55;;;;;24.60;100736.00;;;;10045752;29;20243;-81
2023/09/12 15:38:23;;;;;;;7.75;5.50;;;;;24.30;100742.00;;;;10054085;29;20240;-81
2023/09/12 15:43:25;;;;;;;12.63;7.68;;;;;24.00;100741.00;;;;10053521;29;20212;-82
2023/09/12 15:48:27;;;;;;;13.00;7.15;;;;;23.80;100739.00;;;;10034041;29;20591;-81
2023/09/12 15:53:28;;;;;;;8.65;6.93;;;;;23.70;100736.00;;;;10043690;29;20221;-81
2023/09/12 15:58:29;;;;;;;14.07;10.48;;;;;23.50;100745.00;;;;10042963;29;20748;-81
2023/09/12 16:03:32;;;;;;;12.25;8.52;;;;;23.40;100732.00;;;;10060461;29;20417;-81
2023/09/12 16:08:33;;;;;;;12.15;9.18;;;;;23.30;100743.00;;;;10045939;29;20209;-82
2023/09/12 16:13:35;;;;;;;13.38;8.30;;;;;23.10;100742.00;;;;10025252;29;20232;-82
2023/09/12 16:18:37;;;;;;;11.23;7.95;;;;;23.00;100749.00;;;;10039973;29;20221;-82
2023/09/12 16:23:39;;;;;;;12.00;8.40;;;;;22.90;100754.00;;;;10057161;29;20213;-81
2023/09/12 16:28:40;;;;;;;15.55;7.90;;;;;22.80;100757.00;;;;10020011;29;20301;-79
2023/09/12 16:33:41;;;;;;;11.02;8.70;;;;;22.70;100754.00;;;;10060929;29;20260;-78
2023/09/12 16:38:44;;;;;;;10.60;7.10;;;;;22.60;100752.00;;;;10061387;29;20224;-78
2023/09/12 16:43:45;;;;;;;15.30;9.73;;;;;22.40;100754.00;;;;10038815;29;20204;-78
2023/09/12 16:48:47;;;;;;;20.63;10.45;;;;;22.40;100753.00;;;;10037755;29;20217;-78
2023/09/12 16:53:50;;;;;;;14.45;10.05;;;;;22.30;100747.00;;;;10047723;29;20233;-81
2023/09/12 16:58:52;;;;;;;13.50;9.95;;;;;22.20;100742.00;;;;10057746;29;20209;-78
2023/09/12 17:04:00;;;;;;;13.48;10.32;;;;;22.20;100739.00;;;;10052474;29;20288;-78
2023/09/12 17:09:03;;;;;;;14.60;11.55;;;;;22.10;100732.00;;;;10036548;29;20273;-78
2023/09/12 17:14:04;;;;;;;16.23;11.85;;;;;21.90;100730.00;;;;10052359;29;20750;-79
2023/09/12 17:19:06;;;;;;;16.20;11.50;;;;;21.60;100739.00;;;;10055753;29;20225;-82
2023/09/12 17:24:08;;;;;;;16.60;12.55;;;;;21.40;100739.00;;;;10031181;29;20808;-79
2023/09/12 17:29:09;;;;;;;14.93;12.32;;;;;21.30;100737.00;;;;10045825;29;20219;-79
2023/09/12 17:34:13;;;;;;;18.05;12.77;;;;;21.10;100730.00;;;;10058076;29;20303;-79
2023/09/12 17:39:15;;;;;;;16.85;13.02;;;;;20.90;100722.00;;;;10045762;29;20208;-82
2023/09/12 17:44:16;;;;;;;20.95;13.93;;;;;20.80;100729.00;;;;10055519;29;20231;-80
2023/09/12 17:49:17;;;;;;;16.27;13.23;;;;;20.60;100740.00;;;;10083128;29;20244;-81
2023/09/12 17:54:19;;;;;;;16.48;13.77;;;;;20.40;100733.00;;;;10046257;29;20239;-81
2023/09/12 17:59:20;;;;;;;20.08;14.82;;;;;20.30;100737.00;;;;10037049;29;20228;-79
2023/09/12 18:04:23;;;;;;;18.77;15.95;;;;;20.20;100746.00;;;;10059456;29;20216;-79
2023/09/12 18:09:24;;;;;;;20.52;15.68;;;;;20.10;100751.00;;;;10038771;29;20217;-79
2023/09/12 18:14:26;;;;;;;23.75;15.05;;;;;20.10;100755.00;;;;10041523;29;20240;-79
2023/09/12 18:19:27;;;;;;;22.10;15.98;;;;;20.00;100764.00;;;;10045756;29;20217;-79
2023/09/12 18:24:28;;;;;;;20.63;15.77;;;;;20.00;100764.00;;;;10052560;29;20229;-79
2023/09/12 18:29:29;;;;;;;23.17;16.27;;;;;20.00;100777.00;;;;10069235;29;20219;-79
2023/09/12 18:34:31;;;;;;;22.52;16.35;;;;;20.00;100783.00;;;;10057950;29;20243;-80
2023/09/12 18:39:32;;;;;;;23.05;17.17;;;;;20.00;100785.00;;;;10042947;29;20211;-79
2023/09/12 18:44:34;;;;;;;21.33;16.48;;;;;20.00;100790.00;;;;10069833;29;20568;-80
2023/09/12 18:49:35;;;;;;;27.55;16.35;;;;;20.00;100794.00;;;;10058436;29;20229;-81
2023/09/12 18:54:36;;;;;;;19.00;15.68;;;;;20.00;100789.00;;;;10041504;29;20279;-80
2023/09/12 18:59:40;;;;;;;24.17;15.98;;;;;20.00;100801.00;;;;10047136;29;20239;-81
2023/09/12 19:04:41;;;;;;;18.45;14.45;;;;;20.00;100809.00;;;;10052070;29;20854;-81
2023/09/12 19:09:42;;;;;;;19.95;13.65;;;;;20.00;100814.00;;;;10047744;29;20778;-80
2023/09/12 19:14:44;;;;;;;17.25;13.90;;;;;20.10;100808.00;;;;10055134;29;20232;-81
2023/09/12 19:19:45;;;;;;;18.70;14.93;;;;;20.10;100814.00;;;;10051039;29;20216;-81
2023/09/12 19:24:47;;;;;;;17.88;13.95;;;;;20.10;100816.00;;;;10029403;29;20221;-80
2023/09/12 19:29:54;;;;;;;17.67;14.00;;;;;20.20;100822.00;;;;10059313;29;20209;-79
2023/09/12 19:34:58;;;;;;;19.88;15.02;;;;;20.30;100819.00;;;;10037439;29;20448;-79
2023/09/12 19:39:59;;;;;;;18.80;14.00;;;;;20.30;100814.00;;;;10036758;29;20209;-80
2023/09/12 19:45:01;;;;;;;17.98;13.48;;;;;20.20;100818.00;;;;10037194;29;20533;-81
2023/09/12 19:50:03;;;;;;;20.83;14.32;;;;;20.30;100815.00;;;;10054191;29;20294;-80
2023/09/12 20:07:13;;;;;;;21.55;16.30;;;;;20.20;100813.00;;;;10099639;29;20405;-77
2023/09/12 20:12:14;;;;;;;28.67;20.30;;;;;20.10;100808.00;;;;10091287;29;20220;-79
2023/09/12 20:17:15;;;;;;;33.33;24.45;;;;;20.00;100805.00;;;;10098823;29;20242;-77
2023/09/12 20:22:17;;;;;;;31.42;24.83;;;;;20.00;100823.00;;;;10085299;29;20207;-78
2023/09/12 20:27:18;;;;;;;32.10;25.05;;;;;19.90;100821.00;;;;10096134;29;20207;-79
2023/09/12 20:32:20;;;;;;;31.77;25.02;;;;;19.90;100822.00;;;;10080107;29;20221;-76
2023/09/12 20:37:21;;;;;;;37.90;26.00;;;;;19.90;100823.00;;;;10053711;29;20239;-77
2023/09/12 20:42:22;;;;;;;41.95;30.13;;;;;19.90;100827.00;;;;10091976;29;20299;-77
2023/09/12 20:47:23;;;;;;;47.38;33.60;;;;;19.80;100827.00;;;;10086636;29;20200;-78
2023/09/12 20:52:25;;;;;;;49.40;34.53;;;;;19.80;100836.00;;;;10102808;29;20238;-79
2023/09/12 20:57:26;;;;;;;47.67;35.25;;;;;19.80;100839.00;;;;10099234;29;20322;-78
2023/09/12 21:02:27;;;;;;;36.50;29.08;;;;;19.70;100836.00;;;;10091642;29;20444;-79
2023/09/12 21:07:29;;;;;;;36.65;27.38;;;;;19.60;100844.00;;;;10093368;29;20216;-78
2023/09/12 21:12:30;;;;;;;29.25;25.08;;;;;19.50;100845.00;;;;10089830;29;20322;-79
2023/09/12 21:17:37;;;;;;;22.30;18.40;;;;;19.40;100853.00;;;;10081538;29;20271;-79
2023/09/12 21:22:38;;;;;;;21.02;18.80;;;;;19.30;100856.00;;;;10056909;29;20213;-80
2023/09/12 21:27:39;;;;;;;21.70;19.20;;;;;19.20;100854.00;;;;10088205;29;20208;-79
2023/09/12 21:32:42;;;;;;;27.58;21.60;;;;;19.10;100856.00;;;;10087512;29;20314;-78
2023/09/12 21:37:44;;;;;;;29.40;22.48;;;;;19.10;100854.00;;;;10082872;29;20213;-78
2023/09/12 21:42:46;;;;;;;28.02;23.83;;;;;19.00;100849.00;;;;10097964;29;20211;-78
2023/09/12 21:47:48;;;;;;;25.70;21.33;;;;;19.00;100850.00;;;;10088564;29;20223;-78
2023/09/12 21:52:49;;;;;;;25.92;21.63;;;;;19.10;100852.00;;;;10068942;29;20219;-78
2023/09/12 21:57:51;;;;;;;27.25;21.90;;;;;19.10;100848.00;;;;10083339;29;20284;-79
2023/09/12 22:02:54;;;;;;;29.35;24.00;;;;;19.10;100844.00;;;;10031063;29;20216;-79
2023/09/12 22:07:56;;;;;;;33.05;26.80;;;;;19.10;100861.00;;;;10020136;29;20225;-80
2023/09/12 22:12:58;;;;;;;33.70;25.52;;;;;18.80;100852.00;;;;10058841;29;20679;-81
2023/09/12 22:17:59;;;;;;;22.63;19.20;;;;;18.60;100853.00;;;;10027730;29;20220;-79
2023/09/12 22:23:02;;;;;;;22.27;18.73;;;;;18.50;100861.00;;;;10053052;29;20255;-78
2023/09/12 22:28:04;;;;;;;22.02;17.98;;;;;18.50;100860.00;;;;10023565;29;20248;-82
2023/09/12 22:33:08;;;;;;;21.35;18.77;;;;;18.40;100854.00;;;;10053628;29;20301;-77
2023/09/12 22:38:10;;;;;;;20.35;17.58;;;;;18.40;100856.00;;;;10053445;29;20303;-78
2023/09/12 22:43:11;;;;;;;23.05;18.15;;;;;18.40;100861.00;;;;10050856;29;20200;-78
2023/09/12 22:48:15;;;;;;;21.30;18.42;;;;;18.40;100862.00;;;;10059624;29;20420;-79
2023/09/12 22:53:20;;;;;;;23.23;17.88;;;;;18.40;100861.00;;;;10045821;29;20236;-79
2023/09/12 22:58:21;;;;;;;18.98;16.42;;;;;18.40;100863.00;;;;10061989;29;20399;-78
2023/09/12 23:03:23;;;;;;;21.17;16.48;;;;;18.30;100869.00;;;;10038650;29;20220;-79
2023/09/12 23:08:24;;;;;;;28.52;21.50;;;;;18.30;100866.00;;;;10055025;29;20217;-78
2023/09/12 23:13:25;;;;;;;44.22;27.92;;;;;18.20;100871.00;;;;10057141;29;20752;-78
2023/09/12 23:18:27;;;;;;;43.15;28.73;;;;;18.20;100870.00;;;;10064339;29;20741;-79
2023/09/12 23:23:28;;;;;;;47.65;30.20;;;;;18.10;100872.00;;;;10060297;29;20212;-79
2023/09/12 23:28:30;;;;;;;50.33;31.10;;;;;18.10;100875.00;;;;10039269;29;20212;-79
2023/09/12 23:33:31;;;;;;;48.25;31.98;;;;;18.00;100880.00;;;;10055070;29;20253;-78
2023/09/12 23:38:32;;;;;;;49.97;32.67;;;;;18.00;100879.00;;;;10059139;29;20277;-78
2023/09/12 23:43:34;;;;;;;50.42;32.63;;;;;17.90;100877.00;;;;10056708;29;20303;-79
2023/09/12 23:48:35;;;;;;;49.13;33.17;;;;;17.80;100881.00;;;;10057762;29;20212;-80
2023/09/12 23:53:36;;;;;;;56.00;32.13;;;;;17.80;100883.00;;;;10054590;29;20729;-79
2023/09/12 23:58:38;;;;;;;54.65;32.40;;;;;17.80;100882.00;;;;10045241;29;20236;-79
